sensor_id;sensor_type;location;lat;lon;timestamp;temperature;humidity
19646;DHT22;9971;52.446;13.452;2022-12-08T00:00:31;16.80;99.90
19646;DHT22;9971;52.446;13.452;2022-12-08T00:05:33;16.80;99.90
19646;DHT22;9971;52.446;13.452;2022-12-08T00:10:42;16.80;99.90
19646;DHT22;9971;52.446;13.452;2022-12-08T00:15:44;16.80;99.90
19646;DHT22;9971;52.446;13.452;2022-12-08T00:20:52;16.80;99.90
19646;DHT22;9971;52.446;13.452;2022-12-08T00:25:48;16.80;99.90
19646;DHT22;9971;52.446;13.452;2022-12-08T00:30:51;16.80;99.90
19646;DHT22;9971;52.446;13.452;2022-12-08T00:35:53;16.80;99.90
19646;DHT22;9971;52.446;13.452;2022-12-08T00:40:56;16.80;99.90
19646;DHT22;9971;52.446;13.452;2022-12-08T00:45:58;16.80;99.90
19646;DHT22;9971;52.446;13.452;2022-12-08T00:51:00;16.80;99.90
19646;DHT22;9971;52.446;13.452;2022-12-08T00:56:03;16.80;99.90
19646;DHT22;9971;52.446;13.452;2022-12-08T01:01:09;16.80;99.90
19646;DHT22;9971;52.446;13.452;2022-12-08T01:06:11;16.80;99.90
19646;DHT22;9971;52.446;13.452;2022-12-08T01:11:15;16.80;99.90
19646;DHT22;9971;52.446;13.452;2022-12-08T01:16:23;16.80;99.90
19646;DHT22;9971;52.446;13.452;2022-12-08T01:21:23;16.80;99.90
19646;DHT22;9971;52.446;13.452;2022-12-08T01:26:26;16.80;99.90
19646;DHT22;9971;52.446;13.452;2022-12-08T01:31:28;16.80;99.90
19646;DHT22;9971;52.446;13.452;2022-12-08T01:36:30;16.80;99.90
19646;DHT22;9971;52.446;13.452;2022-12-08T01:41:33;16.80;99.90
19646;DHT22;9971;52.446;13.452;2022-12-08T01:46:35;16.80;99.90
19646;DHT22;9971;52.446;13.452;2022-12-08T01:51:40;16.70;99.90
19646;DHT22;9971;52.446;13.452;2022-12-08T01:56:42;16.70;99.90
19646;DHT22;9971;52.446;13.452;2022-12-08T02:01:43;16.70;99.90
19646;DHT22;9971;52.446;13.452;2022-12-08T02:06:45;16.70;99.90
19646;DHT22;9971;52.446;13.452;2022-12-08T02:11:47;16.70;99.90
19646;DHT22;9971;52.446;13.452;2022-12-08T02:16:53;16.70;99.90
19646;DHT22;9971;52.446;13.452;2022-12-08T02:22:16;16.70;99.90
19646;DHT22;9971;52.446;13.452;2022-12-08T02:33:00;16.70;99.90
19646;DHT22;9971;52.446;13.452;2022-12-08T02:38:03;16.60;99.90
19646;DHT22;9971;52.446;13.452;2022-12-08T02:43:02;16.70;99.90
19646;DHT22;9971;52.446;13.452;2022-12-08T02:48:04;16.70;99.90
19646;DHT22;9971;52.446;13.452;2022-12-08T02:53:06;16.60;99.90
19646;DHT22;9971;52.446;13.452;2022-12-08T02:58:22;16.60;99.90
19646;DHT22;9971;52.446;13.452;2022-12-08T03:03:25;16.60;99.90
19646;DHT22;9971;52.446;13.452;2022-12-08T03:08:30;16.60;99.90
19646;DHT22;9971;52.446;13.452;2022-12-08T03:13:33;16.60;99.90
19646;DHT22;9971;52.446;13.452;2022-12-08T03:18:35;16.60;99.90
19646;DHT22;9971;52.446;13.452;2022-12-08T03:23:35;16.60;99.90
19646;DHT22;9971;52.446;13.452;2022-12-08T03:28:37;16.60;99.90
19646;DHT22;9971;52.446;13.452;2022-12-08T03:33:40;16.50;99.90
19646;DHT22;9971;52.446;13.452;2022-12-08T03:38:42;16.50;99.90
19646;DHT22;9971;52.446;13.452;2022-12-08T03:43:49;16.50;99.90
19646;DHT22;9971;52.446;13.452;2022-12-08T03:48:50;16.50;99.90
19646;DHT22;9971;52.446;13.452;2022-12-08T03:53:52;16.50;99.90
19646;DHT22;9971;52.446;13.452;2022-12-08T03:58:54;16.50;99.90
19646;DHT22;9971;52.446;13.452;2022-12-08T04:03:56;16.50;99.90
19646;DHT22;9971;52.446;13.452;2022-12-08T04:08:59;16.50;99.90
19646;DHT22;9971;52.446;13.452;2022-12-08T04:14:01;16.50;99.90
19646;DHT22;9971;52.446;13.452;2022-12-08T04:19:03;16.50;99.90
19646;DHT22;9971;52.446;13.452;2022-12-08T04:24:06;16.50;99.90
19646;DHT22;9971;52.446;13.452;2022-12-08T04:29:09;16.50;99.90
19646;DHT22;9971;52.446;13.452;2022-12-08T04:34:11;16.40;99.90
19646;DHT22;9971;52.446;13.452;2022-12-08T04:39:14;16.40;99.90
19646;DHT22;9971;52.446;13.452;2022-12-08T04:44:16;16.40;99.90
19646;DHT22;9971;52.446;13.452;2022-12-08T04:49:19;16.40;99.90
19646;DHT22;9971;52.446;13.452;2022-12-08T04:54:21;16.40;99.90
19646;DHT22;9971;52.446;13.452;2022-12-08T04:59:24;16.30;99.90
19646;DHT22;9971;52.446;13.452;2022-12-08T05:04:26;16.30;99.90
19646;DHT22;9971;52.446;13.452;2022-12-08T05:09:29;16.30;99.90
19646;DHT22;9971;52.446;13.452;2022-12-08T05:14:32;16.20;99.90
19646;DHT22;9971;52.446;13.452;2022-12-08T05:19:35;16.30;99.90
19646;DHT22;9971;52.446;13.452;2022-12-08T05:24:38;16.30;99.90
19646;DHT22;9971;52.446;13.452;2022-12-08T05:29:40;16.30;99.90
19646;DHT22;9971;52.446;13.452;2022-12-08T05:34:42;16.30;99.90
19646;DHT22;9971;52.446;13.452;2022-12-08T05:39:45;16.40;99.90
19646;DHT22;9971;52.446;13.452;2022-12-08T05:44:47;16.40;99.90
19646;DHT22;9971;52.446;13.452;2022-12-08T05:49:51;16.40;99.90
19646;DHT22;9971;52.446;13.452;2022-12-08T05:54:56;16.40;99.90
19646;DHT22;9971;52.446;13.452;2022-12-08T06:00:02;16.40;99.90
19646;DHT22;9971;52.446;13.452;2022-12-08T06:05:05;16.40;99.90
19646;DHT22;9971;52.446;13.452;2022-12-08T06:10:08;16.40;99.90
19646;DHT22;9971;52.446;13.452;2022-12-08T06:15:15;16.50;99.90
19646;DHT22;9971;52.446;13.452;2022-12-08T06:20:17;16.50;99.90
19646;DHT22;9971;52.446;13.452;2022-12-08T06:25:20;16.50;99.90
19646;DHT22;9971;52.446;13.452;2022-12-08T06:30:25;16.50;99.90
19646;DHT22;9971;52.446;13.452;2022-12-08T06:35:29;16.50;99.90
19646;DHT22;9971;52.446;13.452;2022-12-08T06:40:33;16.50;99.90
19646;DHT22;9971;52.446;13.452;2022-12-08T06:45:39;16.50;99.90
19646;DHT22;9971;52.446;13.452;2022-12-08T06:50:41;16.50;99.90
19646;DHT22;9971;52.446;13.452;2022-12-08T06:55:44;16.50;99.90
19646;DHT22;9971;52.446;13.452;2022-12-08T07:00:46;16.50;99.90
19646;DHT22;9971;52.446;13.452;2022-12-08T07:05:49;16.50;99.90
19646;DHT22;9971;52.446;13.452;2022-12-08T07:10:51;16.50;99.90
19646;DHT22;9971;52.446;13.452;2022-12-08T07:15:54;16.60;99.90
19646;DHT22;9971;52.446;13.452;2022-12-08T07:21:00;16.60;99.90
19646;DHT22;9971;52.446;13.452;2022-12-08T07:26:03;16.60;99.90
19646;DHT22;9971;52.446;13.452;2022-12-08T07:31:06;16.60;99.90
19646;DHT22;9971;52.446;13.452;2022-12-08T07:36:13;16.60;99.90
19646;DHT22;9971;52.446;13.452;2022-12-08T07:41:18;16.60;99.90
19646;DHT22;9971;52.446;13.452;2022-12-08T07:46:21;16.60;99.90
19646;DHT22;9971;52.446;13.452;2022-12-08T07:51:27;16.60;99.90
19646;DHT22;9971;52.446;13.452;2022-12-08T07:56:30;16.60;99.90
19646;DHT22;9971;52.446;13.452;2022-12-08T08:01:32;16.60;99.90
19646;DHT22;9971;52.446;13.452;2022-12-08T08:06:35;16.70;99.90
19646;DHT22;9971;52.446;13.452;2022-12-08T08:11:37;16.70;99.90
19646;DHT22;9971;52.446;13.452;2022-12-08T08:16:40;16.70;99.90
19646;DHT22;9971;52.446;13.452;2022-12-08T08:21:42;16.70;99.90
19646;DHT22;9971;52.446;13.452;2022-12-08T08:26:45;16.70;99.90
19646;DHT22;9971;52.446;13.452;2022-12-08T08:31:47;16.70;99.90
19646;DHT22;9971;52.446;13.452;2022-12-08T08:36:50;16.70;99.90
19646;DHT22;9971;52.446;13.452;2022-12-08T08:41:52;16.70;99.90
19646;DHT22;9971;52.446;13.452;2022-12-08T08:46:55;16.70;99.90
19646;DHT22;9971;52.446;13.452;2022-12-08T08:51:57;16.70;99.90
19646;DHT22;9971;52.446;13.452;2022-12-08T08:57:00;16.70;99.90
19646;DHT22;9971;52.446;13.452;2022-12-08T09:02:02;16.70;99.90
19646;DHT22;9971;52.446;13.452;2022-12-08T09:07:04;16.70;99.90
19646;DHT22;9971;52.446;13.452;2022-12-08T09:12:07;16.70;99.90
19646;DHT22;9971;52.446;13.452;2022-12-08T09:17:09;16.70;99.90
19646;DHT22;9971;52.446;13.452;2022-12-08T09:22:12;16.80;99.90
19646;DHT22;9971;52.446;13.452;2022-12-08T09:27:15;16.80;99.90
19646;DHT22;9971;52.446;13.452;2022-12-08T09:32:17;16.80;99.90
19646;DHT22;9971;52.446;13.452;2022-12-08T09:37:20;16.80;99.90
19646;DHT22;9971;52.446;13.452;2022-12-08T09:42:29;16.80;99.90
19646;DHT22;9971;52.446;13.452;2022-12-08T09:47:26;16.80;99.90
19646;DHT22;9971;52.446;13.452;2022-12-08T09:52:29;16.80;99.90
19646;DHT22;9971;52.446;13.452;2022-12-08T09:57:30;16.90;99.90
19646;DHT22;9971;52.446;13.452;2022-12-08T10:02:32;16.90;99.90
19646;DHT22;9971;52.446;13.452;2022-12-08T10:07:37;16.90;99.90
19646;DHT22;9971;52.446;13.452;2022-12-08T10:12:48;16.90;99.90
19646;DHT22;9971;52.446;13.452;2022-12-08T10:17:48;16.90;99.90
19646;DHT22;9971;52.446;13.452;2022-12-08T10:28:07;16.90;99.90
19646;DHT22;9971;52.446;13.452;2022-12-08T10:33:13;16.90;99.90
19646;DHT22;9971;52.446;13.452;2022-12-08T10:38:21;17.00;99.90
19646;DHT22;9971;52.446;13.452;2022-12-08T10:43:23;16.90;99.90
19646;DHT22;9971;52.446;13.452;2022-12-08T10:48:27;12.20;99.90
19646;DHT22;9971;52.446;13.452;2022-12-08T10:53:29;9.80;99.90
19646;DHT22;9971;52.446;13.452;2022-12-08T10:58:41;8.60;99.90
19646;DHT22;9971;52.446;13.452;2022-12-08T11:03:48;8.00;99.90
19646;DHT22;9971;52.446;13.452;2022-12-08T11:08:53;7.60;99.90
19646;DHT22;9971;52.446;13.452;2022-12-08T11:13:54;7.40;99.90
19646;DHT22;9971;52.446;13.452;2022-12-08T11:18:56;7.30;99.90
19646;DHT22;9971;52.446;13.452;2022-12-08T11:23:58;7.20;99.90
19646;DHT22;9971;52.446;13.452;2022-12-08T11:29:00;7.10;99.90
19646;DHT22;9971;52.446;13.452;2022-12-08T11:34:02;7.10;99.90
19646;DHT22;9971;52.446;13.452;2022-12-08T11:39:04;7.30;99.90
19646;DHT22;9971;52.446;13.452;2022-12-08T11:49:36;8.70;99.90
19646;DHT22;9971;52.446;13.452;2022-12-08T11:54:43;9.50;99.90
19646;DHT22;9971;52.446;13.452;2022-12-08T11:59:44;10.10;99.90
19646;DHT22;9971;52.446;13.452;2022-12-08T12:04:48;10.70;99.90
19646;DHT22;9971;52.446;13.452;2022-12-08T12:10:01;11.20;99.90
19646;DHT22;9971;52.446;13.452;2022-12-08T12:20:32;11.90;99.90
19646;DHT22;9971;52.446;13.452;2022-12-08T12:25:34;12.30;99.90
19646;DHT22;9971;52.446;13.452;2022-12-08T12:35:49;12.80;99.90
19646;DHT22;9971;52.446;13.452;2022-12-08T12:40:56;13.10;99.90
19646;DHT22;9971;52.446;13.452;2022-12-08T12:51:33;13.50;99.90
19646;DHT22;9971;52.446;13.452;2022-12-08T13:01:47;14.00;99.90
19646;DHT22;9971;52.446;13.452;2022-12-08T13:06:47;14.20;99.90
19646;DHT22;9971;52.446;13.452;2022-12-08T13:11:50;14.40;99.90
19646;DHT22;9971;52.446;13.452;2022-12-08T13:16:52;14.60;99.90
19646;DHT22;9971;52.446;13.452;2022-12-08T13:21:53;14.70;99.90
19646;DHT22;9971;52.446;13.452;2022-12-08T13:32:59;15.00;99.90
19646;DHT22;9971;52.446;13.452;2022-12-08T13:38:01;15.10;99.90
19646;DHT22;9971;52.446;13.452;2022-12-08T13:43:22;15.30;99.90
19646;DHT22;9971;52.446;13.452;2022-12-08T13:48:27;15.40;99.90
19646;DHT22;9971;52.446;13.452;2022-12-08T13:53:28;15.50;99.90
19646;DHT22;9971;52.446;13.452;2022-12-08T13:58:31;15.60;99.90
19646;DHT22;9971;52.446;13.452;2022-12-08T14:03:42;15.70;99.90
19646;DHT22;9971;52.446;13.452;2022-12-08T14:08:36;15.70;99.90
19646;DHT22;9971;52.446;13.452;2022-12-08T14:13:38;15.80;99.90
19646;DHT22;9971;52.446;13.452;2022-12-08T14:18:40;15.90;99.90
19646;DHT22;9971;52.446;13.452;2022-12-08T14:23:43;16.00;99.90
19646;DHT22;9971;52.446;13.452;2022-12-08T14:28:45;16.10;99.90
19646;DHT22;9971;52.446;13.452;2022-12-08T14:33:48;16.20;99.90
19646;DHT22;9971;52.446;13.452;2022-12-08T14:38:50;16.20;99.90
19646;DHT22;9971;52.446;13.452;2022-12-08T14:43:58;16.30;99.90
19646;DHT22;9971;52.446;13.452;2022-12-08T14:48:59;16.30;99.90
19646;DHT22;9971;52.446;13.452;2022-12-08T14:54:07;16.40;99.90
19646;DHT22;9971;52.446;13.452;2022-12-08T14:59:12;16.50;99.90
19646;DHT22;9971;52.446;13.452;2022-12-08T15:04:18;16.50;99.90
19646;DHT22;9971;52.446;13.452;2022-12-08T15:09:41;16.60;99.90
19646;DHT22;9971;52.446;13.452;2022-12-08T15:14:52;16.60;99.90
19646;DHT22;9971;52.446;13.452;2022-12-08T15:19:53;16.70;99.90
19646;DHT22;9971;52.446;13.452;2022-12-08T15:24:46;16.70;99.90
19646;DHT22;9971;52.446;13.452;2022-12-08T15:29:48;16.80;99.90
19646;DHT22;9971;52.446;13.452;2022-12-08T15:34:52;16.80;99.90
19646;DHT22;9971;52.446;13.452;2022-12-08T15:39:54;16.80;99.90
19646;DHT22;9971;52.446;13.452;2022-12-08T15:44:57;16.90;99.90
19646;DHT22;9971;52.446;13.452;2022-12-08T15:49:59;16.90;99.90
19646;DHT22;9971;52.446;13.452;2022-12-08T15:55:01;16.90;99.90
19646;DHT22;9971;52.446;13.452;2022-12-08T16:00:04;16.90;99.90
19646;DHT22;9971;52.446;13.452;2022-12-08T16:05:07;16.90;99.90
19646;DHT22;9971;52.446;13.452;2022-12-08T16:10:14;16.90;99.90
19646;DHT22;9971;52.446;13.452;2022-12-08T16:15:11;17.00;99.90
19646;DHT22;9971;52.446;13.452;2022-12-08T16:20:14;17.00;99.90
19646;DHT22;9971;52.446;13.452;2022-12-08T16:25:16;17.00;99.90
19646;DHT22;9971;52.446;13.452;2022-12-08T16:30:18;17.00;99.90
19646;DHT22;9971;52.446;13.452;2022-12-08T16:35:20;17.00;99.90
19646;DHT22;9971;52.446;13.452;2022-12-08T16:40:22;17.20;99.90
19646;DHT22;9971;52.446;13.452;2022-12-08T16:45:25;17.40;99.90
19646;DHT22;9971;52.446;13.452;2022-12-08T16:50:28;17.40;99.90
19646;DHT22;9971;52.446;13.452;2022-12-08T16:55:29;17.30;99.90
19646;DHT22;9971;52.446;13.452;2022-12-08T17:00:31;17.30;99.90
19646;DHT22;9971;52.446;13.452;2022-12-08T17:05:33;17.30;99.90
19646;DHT22;9971;52.446;13.452;2022-12-08T17:10:36;17.20;99.90
19646;DHT22;9971;52.446;13.452;2022-12-08T17:15:37;17.20;99.90
19646;DHT22;9971;52.446;13.452;2022-12-08T17:20:39;17.20;99.90
19646;DHT22;9971;52.446;13.452;2022-12-08T17:25:41;17.30;99.90
19646;DHT22;9971;52.446;13.452;2022-12-08T17:30:44;17.30;99.90
19646;DHT22;9971;52.446;13.452;2022-12-08T17:35:47;17.30;99.90
19646;DHT22;9971;52.446;13.452;2022-12-08T17:40:48;17.30;99.90
19646;DHT22;9971;52.446;13.452;2022-12-08T17:45:51;17.30;99.90
19646;DHT22;9971;52.446;13.452;2022-12-08T17:50:53;17.30;99.90
19646;DHT22;9971;52.446;13.452;2022-12-08T17:55:56;17.30;99.90
19646;DHT22;9971;52.446;13.452;2022-12-08T18:00:57;17.30;99.90
19646;DHT22;9971;52.446;13.452;2022-12-08T18:06:04;17.40;99.90
19646;DHT22;9971;52.446;13.452;2022-12-08T18:11:09;17.40;99.90
19646;DHT22;9971;52.446;13.452;2022-12-08T18:16:08;17.40;99.90
19646;DHT22;9971;52.446;13.452;2022-12-08T18:21:10;17.40;99.90
19646;DHT22;9971;52.446;13.452;2022-12-08T18:26:13;17.40;99.90
19646;DHT22;9971;52.446;13.452;2022-12-08T18:31:16;17.40;99.90
19646;DHT22;9971;52.446;13.452;2022-12-08T18:36:19;17.40;99.90
19646;DHT22;9971;52.446;13.452;2022-12-08T18:41:21;17.40;99.90
19646;DHT22;9971;52.446;13.452;2022-12-08T18:46:22;17.50;99.90
19646;DHT22;9971;52.446;13.452;2022-12-08T18:51:24;17.50;99.90
19646;DHT22;9971;52.446;13.452;2022-12-08T18:56:30;17.50;99.90
19646;DHT22;9971;52.446;13.452;2022-12-08T19:01:34;17.50;99.90
19646;DHT22;9971;52.446;13.452;2022-12-08T19:06:36;17.50;99.90
19646;DHT22;9971;52.446;13.452;2022-12-08T19:11:38;17.50;99.90
19646;DHT22;9971;52.446;13.452;2022-12-08T19:16:40;17.50;99.90
19646;DHT22;9971;52.446;13.452;2022-12-08T19:21:42;17.50;99.90
19646;DHT22;9971;52.446;13.452;2022-12-08T19:26:45;17.50;99.90
19646;DHT22;9971;52.446;13.452;2022-12-08T19:31:47;17.50;99.90
19646;DHT22;9971;52.446;13.452;2022-12-08T19:36:50;17.50;99.90
19646;DHT22;9971;52.446;13.452;2022-12-08T19:41:53;17.50;99.90
19646;DHT22;9971;52.446;13.452;2022-12-08T19:47:02;17.50;99.90
19646;DHT22;9971;52.446;13.452;2022-12-08T19:52:04;17.50;99.90
19646;DHT22;9971;52.446;13.452;2022-12-08T19:57:06;17.50;99.90
19646;DHT22;9971;52.446;13.452;2022-12-08T20:02:09;17.50;99.90
19646;DHT22;9971;52.446;13.452;2022-12-08T20:07:11;17.50;99.90
19646;DHT22;9971;52.446;13.452;2022-12-08T20:12:13;17.50;99.90
19646;DHT22;9971;52.446;13.452;2022-12-08T20:17:16;17.50;99.90
19646;DHT22;9971;52.446;13.452;2022-12-08T20:22:19;17.50;99.90
19646;DHT22;9971;52.446;13.452;2022-12-08T20:27:21;17.50;99.90
19646;DHT22;9971;52.446;13.452;2022-12-08T20:32:23;17.50;99.90
19646;DHT22;9971;52.446;13.452;2022-12-08T20:37:26;17.50;99.90
19646;DHT22;9971;52.446;13.452;2022-12-08T20:42:28;17.50;99.90
19646;DHT22;9971;52.446;13.452;2022-12-08T20:47:31;17.50;99.90
19646;DHT22;9971;52.446;13.452;2022-12-08T20:52:33;17.50;99.90
19646;DHT22;9971;52.446;13.452;2022-12-08T20:57:35;17.50;99.90
19646;DHT22;9971;52.446;13.452;2022-12-08T21:02:38;17.50;99.90
19646;DHT22;9971;52.446;13.452;2022-12-08T21:07:40;17.40;99.90
19646;DHT22;9971;52.446;13.452;2022-12-08T21:12:42;17.50;99.90
19646;DHT22;9971;52.446;13.452;2022-12-08T21:17:45;17.50;99.90
19646;DHT22;9971;52.446;13.452;2022-12-08T21:22:47;17.40;99.90
19646;DHT22;9971;52.446;13.452;2022-12-08T21:27:50;17.50;99.90
19646;DHT22;9971;52.446;13.452;2022-12-08T21:32:52;17.50;99.90
19646;DHT22;9971;52.446;13.452;2022-12-08T21:37:55;17.50;99.90
19646;DHT22;9971;52.446;13.452;2022-12-08T21:42:57;17.50;99.90
19646;DHT22;9971;52.446;13.452;2022-12-08T21:48:00;17.50;99.90
19646;DHT22;9971;52.446;13.452;2022-12-08T21:53:02;17.50;99.90
19646;DHT22;9971;52.446;13.452;2022-12-08T21:58:04;17.50;99.90
19646;DHT22;9971;52.446;13.452;2022-12-08T22:03:06;17.50;99.90
19646;DHT22;9971;52.446;13.452;2022-12-08T22:08:09;17.50;99.90
19646;DHT22;9971;52.446;13.452;2022-12-08T22:13:11;17.50;99.90
19646;DHT22;9971;52.446;13.452;2022-12-08T22:18:14;17.50;99.90
19646;DHT22;9971;52.446;13.452;2022-12-08T22:23:16;17.50;99.90
19646;DHT22;9971;52.446;13.452;2022-12-08T22:28:18;17.50;99.90
19646;DHT22;9971;52.446;13.452;2022-12-08T22:33:20;17.50;99.90
19646;DHT22;9971;52.446;13.452;2022-12-08T22:38:23;17.50;99.90
19646;DHT22;9971;52.446;13.452;2022-12-08T22:43:25;17.50;99.90
19646;DHT22;9971;52.446;13.452;2022-12-08T22:48:27;17.50;99.90
19646;DHT22;9971;52.446;13.452;2022-12-08T22:53:29;17.50;99.90
19646;DHT22;9971;52.446;13.452;2022-12-08T22:58:31;11.40;99.90
19646;DHT22;9971;52.446;13.452;2022-12-08T23:03:34;7.00;99.90
19646;DHT22;9971;52.446;13.452;2022-12-08T23:08:36;4.10;99.90
19646;DHT22;9971;52.446;13.452;2022-12-08T23:13:38;3.20;99.90
19646;DHT22;9971;52.446;13.452;2022-12-08T23:18:44;2.70;99.90
19646;DHT22;9971;52.446;13.452;2022-12-08T23:23:43;3.00;99.90
19646;DHT22;9971;52.446;13.452;2022-12-08T23:28:46;4.10;99.90
19646;DHT22;9971;52.446;13.452;2022-12-08T23:33:47;5.20;99.90
19646;DHT22;9971;52.446;13.452;2022-12-08T23:38:50;6.20;99.90
19646;DHT22;9971;52.446;13.452;2022-12-08T23:43:52;7.00;99.90
19646;DHT22;9971;52.446;13.452;2022-12-08T23:48:55;7.80;99.90
19646;DHT22;9971;52.446;13.452;2022-12-08T23:53:57;8.50;99.90
19646;DHT22;9971;52.446;13.452;2022-12-08T23:58:59;9.00;99.90
